createdAt,value
2023-05-17T00:01:50.649Z,5.43
2023-05-17T00:04:18.725Z,5.80
2023-05-17T00:06:47.035Z,6.23
2023-05-17T00:09:16.414Z,5.80
2023-05-17T00:11:44.420Z,5.60
2023-05-17T00:14:12.712Z,6.03
2023-05-17T00:16:40.797Z,5.70
2023-05-17T00:19:09.474Z,5.60
2023-05-17T00:21:38.030Z,6.17
2023-05-17T00:24:06.747Z,5.73
2023-05-17T00:26:36.611Z,6.00
2023-05-17T00:29:04.644Z,5.70
2023-05-17T00:31:32.701Z,5.60
2023-05-17T00:34:00.736Z,5.83
2023-05-17T00:36:28.782Z,5.83
2023-05-17T00:38:57.996Z,5.50
2023-05-17T00:41:26.006Z,5.97
2023-05-17T00:43:55.367Z,5.87
2023-05-17T00:46:23.619Z,4.97
2023-05-17T00:48:51.713Z,5.27
2023-05-17T00:51:20.874Z,5.50
2023-05-17T00:53:49.454Z,5.50
2023-05-17T00:56:17.558Z,5.17
2023-05-17T00:58:45.768Z,5.37
2023-05-17T01:01:15.453Z,4.80
2023-05-17T01:03:43.780Z,5.00
2023-05-17T01:06:12.012Z,4.50
2023-05-17T01:08:40.086Z,5.23
2023-05-17T01:11:15.310Z,4.57
2023-05-17T01:13:53.247Z,4.20
2023-05-17T01:16:30.870Z,4.33
2023-05-17T01:19:06.207Z,4.20
2023-05-17T01:21:54.734Z,4.10
2023-05-17T01:24:29.797Z,4.13
2023-05-17T01:27:02.162Z,3.33
2023-05-17T01:29:30.968Z,3.30
2023-05-17T01:32:00.623Z,3.40
2023-05-17T01:34:29.690Z,3.40
2023-05-17T01:36:58.385Z,3.30
2023-05-17T01:39:26.617Z,3.30
2023-05-17T01:42:06.311Z,3.70
2023-05-17T01:44:47.030Z,3.20
2023-05-17T01:47:21.499Z,3.20
2023-05-17T01:49:55.110Z,3.27
2023-05-17T01:52:32.894Z,2.80
2023-05-17T01:55:08.360Z,2.90
2023-05-17T01:57:39.043Z,2.90
2023-05-17T02:00:09.198Z,3.10
2023-05-17T02:02:37.834Z,2.70
2023-05-17T02:05:06.685Z,2.70
2023-05-17T02:07:34.823Z,2.30
2023-05-17T02:10:02.859Z,2.37
2023-05-17T02:12:30.913Z,2.30
2023-05-17T02:15:00.298Z,2.00
2023-05-17T02:17:29.216Z,2.00
2023-05-17T02:19:57.221Z,2.00
2023-05-17T02:22:25.297Z,2.13
2023-05-17T02:24:53.336Z,1.93
2023-05-17T02:27:22.705Z,2.10
2023-05-17T02:29:50.725Z,2.10
2023-05-17T02:32:20.105Z,2.10
2023-05-17T02:34:48.128Z,2.10
2023-05-17T02:37:16.159Z,2.40
2023-05-17T02:39:44.159Z,2.40
2023-05-17T02:42:12.652Z,2.50
2023-05-17T02:44:41.010Z,2.80
2023-05-17T02:47:09.066Z,2.40
2023-05-17T02:49:38.539Z,2.70
2023-05-17T02:52:07.003Z,2.67
2023-05-17T02:54:37.410Z,3.00
2023-05-17T02:57:05.956Z,2.70
2023-05-17T02:59:33.954Z,2.87
2023-05-17T03:02:01.984Z,2.60
2023-05-17T03:04:30.178Z,2.70
2023-05-17T03:06:59.593Z,2.60
2023-05-17T03:09:29.790Z,2.47
2023-05-17T03:11:58.323Z,2.30
2023-05-17T03:14:26.422Z,2.60
2023-05-17T03:16:54.408Z,2.50
2023-05-17T03:19:22.472Z,2.10
2023-05-17T03:21:50.585Z,2.20
2023-05-17T03:24:20.015Z,2.40
2023-05-17T03:26:48.124Z,2.30
2023-05-17T03:29:16.124Z,2.33
2023-05-17T03:31:44.123Z,2.47
2023-05-17T03:34:12.178Z,2.40
2023-05-17T03:36:40.510Z,2.50
2023-05-17T03:39:08.923Z,2.13
2023-05-17T03:41:38.589Z,2.00
2023-05-17T03:44:06.844Z,2.47
2023-05-17T03:46:34.855Z,1.93
2023-05-17T03:49:02.900Z,2.20
2023-05-17T03:51:31.144Z,1.97
2023-05-17T03:54:00.186Z,2.33
2023-05-17T03:56:28.479Z,2.30
2023-05-17T03:58:57.871Z,2.10
2023-05-17T04:01:25.872Z,2.33
2023-05-17T04:03:53.917Z,1.90
2023-05-17T04:06:21.991Z,1.90
2023-05-17T04:08:54.909Z,2.20
2023-05-17T04:11:24.286Z,2.07
2023-05-17T04:13:52.451Z,1.83
2023-05-17T04:16:22.453Z,2.10
2023-05-17T04:18:52.788Z,1.80
2023-05-17T04:21:21.446Z,2.10
2023-05-17T04:23:49.552Z,2.00
2023-05-17T04:26:17.759Z,2.10
2023-05-17T04:28:45.889Z,2.40
2023-05-17T04:31:16.658Z,2.10
2023-05-17T04:33:47.605Z,2.10
2023-05-17T04:36:18.529Z,2.10
2023-05-17T04:38:47.234Z,2.37
2023-05-17T04:41:16.165Z,2.67
2023-05-17T04:43:44.194Z,2.20
2023-05-17T04:46:12.236Z,2.20
2023-05-17T04:48:40.376Z,2.20
2023-05-17T04:51:09.826Z,2.50
2023-05-17T04:53:37.852Z,2.20
2023-05-17T04:56:06.926Z,2.67
2023-05-17T04:58:35.393Z,2.50
2023-05-17T05:01:03.520Z,2.40
2023-05-17T05:03:31.643Z,1.80
2023-05-17T05:05:59.633Z,1.80
2023-05-17T05:08:32.593Z,2.20
2023-05-17T05:11:00.609Z,1.80
2023-05-17T05:13:30.699Z,1.47
2023-05-17T05:15:59.899Z,1.60
2023-05-17T05:18:27.977Z,1.70
2023-05-17T05:20:56.766Z,2.80
2023-05-17T05:23:25.070Z,2.57
2023-05-17T05:25:54.712Z,1.97
2023-05-17T05:28:22.781Z,1.77
2023-05-17T05:30:50.791Z,1.63
2023-05-17T05:33:20.003Z,1.90
2023-05-17T05:35:48.541Z,1.50
2023-05-17T05:38:16.582Z,1.60
2023-05-17T05:40:44.631Z,1.57
2023-05-17T05:43:13.989Z,1.33
2023-05-17T05:45:45.784Z,1.50
2023-05-17T05:48:14.019Z,1.40
2023-05-17T05:50:43.923Z,1.60
2023-05-17T05:53:18.954Z,1.40
2023-05-17T05:55:48.180Z,1.40
2023-05-17T05:58:17.530Z,1.20
2023-05-17T06:00:45.789Z,1.17
2023-05-17T06:03:13.776Z,1.30
2023-05-17T06:05:42.016Z,1.00
2023-05-17T06:08:10.216Z,1.40
2023-05-17T06:10:38.222Z,1.10
2023-05-17T06:13:06.213Z,1.03
2023-05-17T06:15:35.751Z,1.07
2023-05-17T06:18:05.047Z,1.00
2023-05-17T06:20:33.158Z,1.23
2023-05-17T06:23:01.923Z,1.10
2023-05-17T06:25:30.078Z,0.90
2023-05-17T06:27:58.040Z,1.13
2023-05-17T06:30:27.738Z,0.90
2023-05-17T06:32:57.480Z,0.90
2023-05-17T06:35:25.535Z,0.80
2023-05-17T06:37:53.508Z,1.10
2023-05-17T06:40:21.855Z,0.80
2023-05-17T06:42:51.496Z,1.10
2023-05-17T06:45:19.503Z,0.97
2023-05-17T06:47:47.591Z,1.00
2023-05-17T06:50:17.449Z,1.07
2023-05-17T06:52:45.466Z,1.30
2023-05-17T06:55:13.686Z,1.33
2023-05-17T06:57:41.644Z,1.30
2023-05-17T07:00:11.279Z,1.57
2023-05-17T07:02:39.626Z,1.90
2023-05-17T07:05:08.495Z,1.53
2023-05-17T07:07:37.986Z,1.40
2023-05-17T07:10:07.630Z,2.97
2023-05-17T07:12:35.890Z,1.93
2023-05-17T07:15:03.971Z,1.90
2023-05-17T07:17:32.000Z,1.50
2023-05-17T07:20:00.254Z,1.60
2023-05-17T07:22:28.357Z,2.00
2023-05-17T07:24:57.710Z,1.67
2023-05-17T07:27:25.772Z,1.43
2023-05-17T07:29:53.813Z,1.50
2023-05-17T07:32:21.827Z,1.50
2023-05-17T07:34:52.778Z,1.63
2023-05-17T07:37:20.801Z,1.40
2023-05-17T07:39:48.882Z,2.63
2023-05-17T07:42:18.282Z,2.60
2023-05-17T07:44:51.547Z,1.87
2023-05-17T07:47:19.830Z,1.90
2023-05-17T07:49:48.043Z,2.13
2023-05-17T07:52:16.462Z,1.90
2023-05-17T07:54:44.516Z,1.90
2023-05-17T07:57:12.775Z,1.67
2023-05-17T07:59:42.162Z,2.00
2023-05-17T08:02:13.437Z,2.00
2023-05-17T08:04:41.954Z,1.90
2023-05-17T08:07:10.533Z,2.00
2023-05-17T08:09:40.201Z,2.20
2023-05-17T08:12:08.193Z,2.00
2023-05-17T08:14:36.172Z,2.00
2023-05-17T08:17:06.002Z,2.47
2023-05-17T08:19:34.091Z,2.37
2023-05-17T08:22:04.042Z,2.40
2023-05-17T08:24:32.022Z,2.30
2023-05-17T08:27:00.036Z,2.20
2023-05-17T08:29:28.154Z,2.20
2023-05-17T08:31:56.884Z,2.40
2023-05-17T08:34:26.238Z,2.10
2023-05-17T08:36:54.539Z,2.60
2023-05-17T08:39:22.849Z,2.30
2023-05-17T08:41:51.037Z,2.37
2023-05-17T08:44:19.101Z,2.27
2023-05-17T08:46:53.878Z,2.00
2023-05-17T08:49:25.753Z,1.97
2023-05-17T08:51:56.876Z,2.20
2023-05-17T08:54:24.916Z,2.03
2023-05-17T08:56:55.825Z,2.20
2023-05-17T08:59:24.550Z,1.87
2023-05-17T09:01:54.799Z,1.60
2023-05-17T09:04:22.896Z,1.80
2023-05-17T09:06:51.620Z,1.63
2023-05-17T09:09:21.639Z,2.00
2023-05-17T09:11:49.637Z,2.10
2023-05-17T09:14:17.803Z,1.87
2023-05-17T09:16:45.803Z,1.87
2023-05-17T09:19:18.604Z,2.07
2023-05-17T09:21:49.793Z,2.27
2023-05-17T09:24:29.001Z,2.10
2023-05-17T09:27:03.330Z,2.10
2023-05-17T09:29:32.729Z,2.00
2023-05-17T09:32:14.160Z,2.10
2023-05-17T09:34:43.007Z,1.80
2023-05-17T09:37:15.291Z,2.00
2023-05-17T09:39:46.110Z,2.03
2023-05-17T09:42:14.968Z,2.10
2023-05-17T09:44:54.573Z,2.07
2023-05-17T09:47:26.726Z,2.20
2023-05-17T09:49:56.464Z,2.63
2023-05-17T09:52:25.532Z,2.37
2023-05-17T09:54:56.226Z,2.90
2023-05-17T09:57:25.975Z,2.70
2023-05-17T09:59:57.843Z,2.90
2023-05-17T10:02:29.479Z,2.73
2023-05-17T10:04:59.283Z,3.10
2023-05-17T10:07:28.216Z,3.50
2023-05-17T10:09:59.893Z,2.90
2023-05-17T10:12:30.518Z,3.07
2023-05-17T10:15:00.001Z,2.73
2023-05-17T10:17:29.693Z,3.03
2023-05-17T10:19:58.864Z,3.27
2023-05-17T10:22:30.945Z,3.43
2023-05-17T10:25:00.710Z,3.40
2023-05-17T10:27:30.362Z,3.40
2023-05-17T10:29:59.395Z,3.30
2023-05-17T10:32:29.909Z,3.00
2023-05-17T10:35:10.416Z,3.10
2023-05-17T10:37:42.321Z,3.20
2023-05-17T10:40:14.242Z,3.40
2023-05-17T10:42:46.139Z,2.90
2023-05-17T10:45:14.905Z,3.20
2023-05-17T10:47:46.029Z,3.20
2023-05-17T10:50:15.217Z,3.20
2023-05-17T10:52:51.826Z,3.20
2023-05-17T10:55:22.158Z,3.33
2023-05-17T10:58:19.618Z,3.10
2023-05-17T11:00:50.106Z,3.07
2023-05-17T11:03:19.622Z,3.13
2023-05-17T11:06:25.239Z,3.77
2023-05-17T11:09:14.878Z,3.60
2023-05-17T11:12:05.403Z,3.53
2023-05-17T11:14:53.901Z,3.30
2023-05-17T11:17:23.133Z,3.40
2023-05-17T11:19:57.731Z,3.40
2023-05-17T11:22:27.512Z,3.40
2023-05-17T11:24:58.682Z,3.47
2023-05-17T11:27:30.873Z,3.23
2023-05-17T11:30:00.244Z,3.20
2023-05-17T11:32:33.055Z,3.00
2023-05-17T11:35:01.590Z,3.10
2023-05-17T11:37:31.326Z,2.93
2023-05-17T11:40:04.149Z,2.80
2023-05-17T11:42:34.205Z,3.10
2023-05-17T11:45:02.728Z,2.90
2023-05-17T11:47:31.415Z,2.70
2023-05-17T11:50:02.806Z,3.23
2023-05-17T11:52:31.254Z,2.70
2023-05-17T11:55:00.188Z,3.03
2023-05-17T11:57:33.754Z,2.63
2023-05-17T12:00:06.295Z,2.67
2023-05-17T12:02:35.881Z,2.50
2023-05-17T12:05:03.972Z,2.57
2023-05-17T12:07:32.046Z,2.80
2023-05-17T12:10:00.336Z,2.73
2023-05-17T12:12:28.374Z,2.60
2023-05-17T12:14:58.583Z,2.50
2023-05-17T12:17:34.216Z,2.40
2023-05-17T12:20:08.532Z,2.70
2023-05-17T12:22:52.060Z,2.97
2023-05-17T12:25:25.571Z,2.90
2023-05-17T12:27:53.853Z,2.93
2023-05-17T12:30:23.834Z,3.40
2023-05-17T12:32:53.606Z,2.90
2023-05-17T12:35:21.947Z,2.80
2023-05-17T12:37:52.726Z,3.00
2023-05-17T12:40:20.895Z,2.53
2023-05-17T12:42:50.799Z,2.50
2023-05-17T12:45:18.864Z,2.53
2023-05-17T12:47:46.993Z,2.23
2023-05-17T12:50:16.402Z,2.10
2023-05-17T12:52:44.366Z,2.60
2023-05-17T12:55:14.872Z,2.40
2023-05-17T12:57:53.605Z,2.47
2023-05-17T13:00:22.373Z,2.30
2023-05-17T13:02:50.458Z,2.50
2023-05-17T13:05:21.833Z,2.60
2023-05-17T13:07:52.584Z,2.60
2023-05-17T13:10:28.814Z,2.67
2023-05-17T13:12:57.981Z,2.70
2023-05-17T13:15:30.220Z,3.30
2023-05-17T13:17:58.680Z,3.03
2023-05-17T13:20:29.115Z,3.23
2023-05-17T13:22:57.545Z,3.03
2023-05-17T13:25:32.932Z,3.43
2023-05-17T13:28:02.430Z,3.93
2023-05-17T13:30:30.739Z,3.20
2023-05-17T13:32:58.977Z,3.57
2023-05-17T13:35:28.412Z,3.07
2023-05-17T13:37:57.863Z,3.20
2023-05-17T13:40:25.993Z,3.37
2023-05-17T13:42:54.017Z,3.60
2023-05-17T13:45:22.401Z,3.03
2023-05-17T13:47:52.889Z,3.27
2023-05-17T13:50:21.729Z,3.17
2023-05-17T13:52:51.109Z,3.33
2023-05-17T13:55:19.275Z,2.77
2023-05-17T13:57:47.230Z,3.20
2023-05-17T14:00:16.132Z,3.20
2023-05-17T14:02:44.212Z,3.00
2023-05-17T14:05:13.355Z,2.80
2023-05-17T14:07:43.015Z,2.70
2023-05-17T14:10:13.390Z,3.07
2023-05-17T14:12:42.094Z,3.13
2023-05-17T14:15:11.699Z,3.00
2023-05-17T14:17:39.716Z,3.17
2023-05-17T14:20:09.821Z,3.37
2023-05-17T14:22:37.986Z,2.90
2023-05-17T14:25:06.766Z,2.93
2023-05-17T14:27:38.087Z,3.03
2023-05-17T14:30:07.185Z,3.13
2023-05-17T14:32:38.516Z,3.30
2023-05-17T14:35:08.325Z,3.13
2023-05-17T14:37:38.677Z,3.00
2023-05-17T14:40:07.943Z,3.07
2023-05-17T14:42:39.992Z,3.53
2023-05-17T14:45:09.170Z,3.20
2023-05-17T14:47:37.384Z,3.30
2023-05-17T14:50:05.965Z,3.37
2023-05-17T14:52:34.728Z,3.40
2023-05-17T14:55:02.685Z,4.07
2023-05-17T14:57:31.291Z,3.80
2023-05-17T15:00:01.358Z,4.03
2023-05-17T15:02:29.446Z,4.23
2023-05-17T15:04:57.558Z,4.70
2023-05-17T15:07:25.557Z,4.33
2023-05-17T15:09:53.513Z,3.87
2023-05-17T15:12:21.710Z,4.03
2023-05-17T15:14:50.246Z,4.50
2023-05-17T15:17:19.572Z,4.57
2023-05-17T15:19:47.687Z,4.00
2023-05-17T15:22:16.592Z,4.43
2023-05-17T15:24:47.151Z,4.13
2023-05-17T15:27:16.410Z,3.90
2023-05-17T15:29:44.895Z,3.93
2023-05-17T15:32:12.884Z,3.70
2023-05-17T15:34:42.257Z,3.60
2023-05-17T15:37:10.381Z,3.90
2023-05-17T15:39:38.350Z,4.27
2023-05-17T15:42:06.845Z,4.30
2023-05-17T15:44:34.854Z,4.37
2023-05-17T15:47:03.462Z,4.20
2023-05-17T15:49:31.731Z,4.43
2023-05-17T15:52:01.323Z,4.10
2023-05-17T15:54:31.473Z,4.37
2023-05-17T15:56:59.430Z,4.00
2023-05-17T15:59:30.191Z,4.00
2023-05-17T16:01:58.234Z,4.60
2023-05-17T16:04:26.514Z,3.97
2023-05-17T16:06:58.541Z,4.20
2023-05-17T16:09:28.155Z,4.30
2023-05-17T16:11:57.786Z,4.37
2023-05-17T16:14:26.006Z,4.27
2023-05-17T16:16:54.019Z,4.27
2023-05-17T16:19:22.816Z,4.10
2023-05-17T16:21:51.251Z,4.93
2023-05-17T16:24:21.342Z,6.90
2023-05-17T16:26:52.610Z,6.80
2023-05-17T16:29:20.609Z,6.60
2023-05-17T16:31:49.672Z,6.70
2023-05-17T16:34:20.581Z,6.50
2023-05-17T16:36:50.627Z,7.70
2023-05-17T16:39:18.639Z,7.83
2023-05-17T16:41:46.642Z,7.93
2023-05-17T16:44:16.014Z,7.50
2023-05-17T16:46:44.042Z,6.67
2023-05-17T16:49:12.041Z,7.53
2023-05-17T16:51:40.038Z,7.80
2023-05-17T16:54:08.512Z,7.67
2023-05-17T16:56:36.850Z,7.60
2023-05-17T16:59:06.010Z,7.80
2023-05-17T17:01:35.505Z,7.63
2023-05-17T17:04:04.485Z,8.10
2023-05-17T17:06:33.846Z,8.00
2023-05-17T17:09:07.003Z,7.70
2023-05-17T17:11:35.937Z,7.70
2023-05-17T17:14:04.326Z,7.63
2023-05-17T17:16:32.736Z,7.70
2023-05-17T17:19:02.208Z,7.47
2023-05-17T17:21:36.439Z,7.50
2023-05-17T17:24:05.443Z,7.93
2023-05-17T17:26:35.176Z,7.87
2023-05-17T17:29:04.309Z,7.40
2023-05-17T17:31:32.512Z,7.67
2023-05-17T17:34:01.873Z,7.43
2023-05-17T17:36:30.395Z,8.20
2023-05-17T17:39:01.128Z,8.00
2023-05-17T17:41:29.137Z,7.83
2023-05-17T17:43:57.125Z,7.37
2023-05-17T17:46:25.640Z,8.27
2023-05-17T17:48:54.478Z,7.53
2023-05-17T17:51:26.051Z,7.30
2023-05-17T17:53:54.210Z,7.30
2023-05-17T17:56:23.806Z,6.50
2023-05-17T17:58:53.622Z,6.87
2023-05-17T18:01:21.624Z,6.20
2023-05-17T18:03:49.836Z,6.37
2023-05-17T18:06:19.424Z,6.67
2023-05-17T18:08:48.797Z,6.53
2023-05-17T18:11:17.043Z,6.00
2023-05-17T18:13:45.056Z,6.13
2023-05-17T18:16:13.105Z,6.10
2023-05-17T18:18:41.277Z,6.23
2023-05-17T18:21:09.606Z,6.10
2023-05-17T18:23:40.189Z,6.70
2023-05-17T18:26:17.230Z,6.43
2023-05-17T18:28:45.217Z,6.20
2023-05-17T18:31:14.863Z,6.07
2023-05-17T18:33:42.938Z,6.17
2023-05-17T18:36:11.125Z,5.97
2023-05-17T18:38:39.180Z,6.00
2023-05-17T18:41:07.330Z,6.63
2023-05-17T18:43:36.931Z,5.40
2023-05-17T18:46:07.271Z,5.00
2023-05-17T18:48:36.497Z,5.90
2023-05-17T18:51:04.735Z,5.90
2023-05-17T18:53:32.817Z,5.93
2023-05-17T18:56:02.415Z,5.80
2023-05-17T18:58:30.921Z,6.20
2023-05-17T19:01:02.571Z,5.47
2023-05-17T19:03:33.058Z,5.90
2023-05-17T19:06:01.129Z,5.93
2023-05-17T19:08:31.904Z,6.13
2023-05-17T19:11:04.499Z,6.47
2023-05-17T19:13:32.533Z,6.90
2023-05-17T19:16:05.307Z,6.93
2023-05-17T19:18:33.427Z,7.00
2023-05-17T19:21:01.676Z,8.17
2023-05-17T19:23:31.965Z,7.57
2023-05-17T19:26:00.244Z,9.13
2023-05-17T19:28:28.391Z,8.17
2023-05-17T19:30:56.662Z,7.47
2023-05-17T19:33:26.088Z,8.60
2023-05-17T19:35:54.098Z,8.83
2023-05-17T19:38:22.098Z,8.60
2023-05-17T19:40:50.137Z,10.47
2023-05-17T19:43:21.534Z,9.50
2023-05-17T19:45:49.560Z,9.90
2023-05-17T19:48:17.679Z,10.60
2023-05-17T19:50:47.133Z,11.03
2023-05-17T19:53:15.149Z,10.10
2023-05-17T19:55:43.178Z,10.30
2023-05-17T19:58:11.302Z,10.57
2023-05-17T20:00:39.333Z,9.50
2023-05-17T20:03:09.430Z,9.70
2023-05-17T20:05:37.766Z,9.77
2023-05-17T20:08:10.532Z,9.00
2023-05-17T20:10:38.577Z,9.50
2023-05-17T20:13:06.769Z,9.47
2023-05-17T20:15:34.801Z,9.50
2023-05-17T20:18:02.917Z,9.83
2023-05-17T20:20:31.144Z,9.90
2023-05-17T20:22:59.248Z,11.20
2023-05-17T20:25:28.643Z,11.13
2023-05-17T20:27:57.197Z,11.67
2023-05-17T20:30:25.810Z,12.27
2023-05-17T20:32:55.250Z,12.27
2023-05-17T20:35:23.258Z,13.67
2023-05-17T20:37:51.308Z,12.40
2023-05-17T20:40:19.488Z,11.80
2023-05-17T20:42:52.909Z,11.57
2023-05-17T20:45:21.596Z,11.83
2023-05-17T20:47:51.209Z,12.43
2023-05-17T20:50:21.388Z,11.63
2023-05-17T20:52:49.629Z,11.13
2023-05-17T20:55:17.657Z,12.47
2023-05-17T20:57:46.834Z,12.33
2023-05-17T21:00:18.092Z,11.60
2023-05-17T21:02:46.374Z,11.83
2023-05-17T21:05:14.494Z,11.57
2023-05-17T21:07:42.556Z,12.37
2023-05-17T21:10:13.476Z,12.50
2023-05-17T21:12:41.454Z,12.10
2023-05-17T21:15:16.516Z,12.13
2023-05-17T21:17:47.022Z,12.53
2023-05-17T21:20:15.597Z,11.57
2023-05-17T21:22:44.327Z,12.57
2023-05-17T21:25:12.459Z,11.60
2023-05-17T21:27:40.482Z,12.40
2023-05-17T21:30:09.603Z,12.13
2023-05-17T21:32:40.043Z,12.00
2023-05-17T21:35:09.873Z,11.10
2023-05-17T21:37:40.056Z,12.37
2023-05-17T21:40:09.501Z,12.00
2023-05-17T21:42:37.795Z,10.90
2023-05-17T21:45:06.883Z,11.77
2023-05-17T21:47:35.942Z,11.50
2023-05-17T21:50:06.234Z,11.20
2023-05-17T21:52:35.614Z,11.40
2023-05-17T21:55:03.641Z,11.57
2023-05-17T21:57:35.886Z,11.20
2023-05-17T22:00:04.946Z,10.97
2023-05-17T22:02:36.130Z,10.27
2023-05-17T22:05:04.415Z,11.77
2023-05-17T22:07:32.422Z,11.43
2023-05-17T22:10:02.281Z,11.43
2023-05-17T22:12:30.345Z,10.80
2023-05-17T22:14:59.165Z,10.87
2023-05-17T22:17:32.362Z,10.70
2023-05-17T22:20:10.985Z,11.60
2023-05-17T22:22:41.893Z,11.27
2023-05-17T22:25:11.988Z,12.17
2023-05-17T22:27:40.001Z,11.57
2023-05-17T22:30:09.066Z,11.10
2023-05-17T22:32:38.259Z,11.67
2023-05-17T22:35:07.101Z,12.67
2023-05-17T22:37:35.114Z,11.87
2023-05-17T22:40:06.069Z,11.33
2023-05-17T22:42:35.452Z,12.17
2023-05-17T22:45:03.535Z,11.77
2023-05-17T22:47:31.910Z,11.60
2023-05-17T22:50:00.855Z,11.37
2023-05-17T22:52:28.926Z,11.40
2023-05-17T22:54:56.910Z,11.93
2023-05-17T22:57:25.203Z,11.90
2023-05-17T22:59:54.616Z,11.50
2023-05-17T23:02:22.845Z,10.73
2023-05-17T23:04:50.848Z,11.30
2023-05-17T23:07:21.844Z,11.60
2023-05-17T23:09:49.915Z,11.60
2023-05-17T23:12:17.923Z,11.63
2023-05-17T23:14:45.967Z,11.47
2023-05-17T23:17:15.732Z,10.50
2023-05-17T23:19:43.722Z,11.57
2023-05-17T23:22:13.153Z,10.70
2023-05-17T23:24:41.158Z,10.53
2023-05-17T23:27:10.056Z,10.83
2023-05-17T23:29:41.335Z,9.60
2023-05-17T23:32:09.376Z,9.63
2023-05-17T23:34:38.804Z,9.53
2023-05-17T23:37:06.851Z,9.43
2023-05-17T23:39:34.850Z,8.60
2023-05-17T23:42:02.866Z,8.93
2023-05-17T23:44:31.482Z,8.53
2023-05-17T23:46:59.920Z,7.63
2023-05-17T23:49:28.135Z,7.83
2023-05-17T23:51:57.939Z,7.80
2023-05-17T23:54:25.995Z,8.57
2023-05-17T23:56:54.001Z,8.10
2023-05-17T23:59:22.773Z,7.47
